Aviation Digital Data Service (ADDS)

Output produced by TAFs form (1203 UTC 24 November 2014)
found at http://aviationweather.gov/adds/tafs/
 
KDMN 241138Z 2412/2512 30007KT P6SM FEW250 
     FM241900 29010G18KT P6SM FEW140 
     FM250300 35017G27KT P6SM SKC 
     FM251000 03010KT P6SM SKC